createdAt,value
2018-09-21T00:00:06.089Z,20.00
2018-09-21T00:02:34.410Z,20.00
2018-09-21T00:05:02.798Z,20.00
2018-09-21T00:07:31.116Z,19.90
2018-09-21T00:09:59.440Z,20.00
2018-09-21T00:12:27.928Z,19.90
2018-09-21T00:14:56.270Z,19.90
2018-09-21T00:17:24.593Z,19.90
2018-09-21T00:19:52.977Z,20.00
2018-09-21T00:22:21.295Z,20.00
2018-09-21T00:24:50.727Z,19.90
2018-09-21T00:27:19.702Z,19.90
2018-09-21T00:29:48.016Z,19.90
2018-09-21T00:32:16.347Z,19.90
2018-09-21T00:34:44.883Z,19.90
2018-09-21T00:37:13.310Z,19.90
2018-09-21T00:39:41.631Z,19.90
2018-09-21T00:42:10.424Z,19.90
2018-09-21T00:44:38.743Z,19.80
2018-09-21T00:47:07.068Z,19.80
2018-09-21T00:49:36.005Z,19.80
2018-09-21T00:52:04.336Z,19.80
2018-09-21T00:54:32.655Z,19.80
2018-09-21T00:57:02.471Z,19.80
2018-09-21T00:59:31.079Z,19.80
2018-09-21T01:01:59.484Z,19.80
2018-09-21T01:04:32.113Z,19.70
2018-09-21T01:07:01.316Z,19.80
2018-09-21T01:09:29.692Z,19.80
2018-09-21T01:11:58.321Z,19.80
2018-09-21T01:14:27.232Z,19.70
2018-09-21T01:16:55.571Z,19.70
2018-09-21T01:19:23.940Z,19.70
2018-09-21T01:21:52.259Z,19.80
2018-09-21T01:24:20.584Z,19.80
2018-09-21T01:26:49.335Z,19.70
2018-09-21T01:29:17.700Z,19.60
2018-09-21T01:31:46.027Z,19.60
2018-09-21T01:34:15.296Z,19.70
2018-09-21T01:36:43.732Z,19.60
2018-09-21T01:39:12.175Z,19.70
2018-09-21T01:41:40.832Z,19.70
2018-09-21T01:44:09.572Z,19.60
2018-09-21T01:46:38.076Z,19.60
2018-09-21T01:49:07.159Z,19.60
2018-09-21T01:51:35.491Z,19.60
2018-09-21T01:54:03.850Z,19.60
2018-09-21T01:56:32.207Z,19.60
2018-09-21T01:59:00.684Z,19.50
2018-09-21T02:01:29.036Z,19.50
2018-09-21T02:03:57.883Z,19.50
2018-09-21T02:06:26.207Z,19.50
2018-09-21T02:08:54.577Z,19.50
2018-09-21T02:11:23.002Z,19.50
2018-09-21T02:13:51.327Z,19.50
2018-09-21T02:16:19.653Z,19.50
2018-09-21T02:18:48.559Z,19.50
2018-09-21T02:21:17.348Z,19.50
2018-09-21T02:23:45.663Z,19.50
2018-09-21T02:26:14.714Z,19.50
2018-09-21T02:28:43.104Z,19.50
2018-09-21T02:31:12.123Z,19.50
2018-09-21T02:33:40.468Z,19.50
2018-09-21T02:36:08.842Z,19.50
2018-09-21T02:38:37.176Z,19.50
2018-09-21T02:41:05.607Z,19.50
2018-09-21T02:43:33.956Z,19.50
2018-09-21T02:46:02.275Z,19.50
2018-09-21T02:48:31.168Z,19.50
2018-09-21T02:51:00.122Z,19.50
2018-09-21T02:53:28.436Z,19.50
2018-09-21T02:55:56.778Z,19.50
2018-09-21T02:58:25.124Z,19.50
2018-09-21T03:00:53.630Z,19.50
2018-09-21T03:03:22.215Z,19.50
2018-09-21T03:05:50.536Z,19.40
2018-09-21T03:08:18.860Z,19.40
2018-09-21T03:10:47.280Z,19.40
2018-09-21T03:13:15.640Z,19.40
2018-09-21T03:15:43.955Z,19.40
2018-09-21T03:18:12.778Z,19.30
2018-09-21T03:20:41.092Z,19.30
2018-09-21T03:23:09.406Z,19.30
2018-09-21T03:25:37.756Z,19.30
2018-09-21T03:28:06.099Z,19.30
2018-09-21T03:30:34.520Z,19.30
2018-09-21T03:33:03.060Z,19.30
2018-09-21T03:35:31.398Z,19.30
2018-09-21T03:37:59.788Z,19.20
2018-09-21T03:40:28.160Z,19.20
2018-09-21T03:42:56.525Z,19.20
2018-09-21T03:45:24.897Z,19.30
2018-09-21T03:47:54.008Z,19.20
2018-09-21T03:50:22.336Z,19.20
2018-09-21T03:52:50.667Z,19.20
2018-09-21T03:55:19.344Z,19.30
2018-09-21T03:57:47.688Z,19.30
2018-09-21T04:00:16.019Z,19.40
2018-09-21T04:02:45.564Z,19.30
2018-09-21T04:05:14.653Z,19.30
2018-09-21T04:07:42.988Z,19.40
2018-09-21T04:10:12.020Z,19.40
2018-09-21T04:12:40.361Z,19.40
2018-09-21T04:15:09.100Z,19.40
2018-09-21T04:17:38.131Z,19.40
2018-09-21T04:20:06.526Z,19.40
2018-09-21T04:22:35.098Z,19.40
2018-09-21T04:25:04.304Z,19.40
2018-09-21T04:27:32.688Z,19.40
2018-09-21T04:30:01.089Z,19.40
2018-09-21T04:32:30.060Z,19.40
2018-09-21T04:34:58.417Z,19.40
2018-09-21T04:37:26.932Z,19.50
2018-09-21T04:39:55.326Z,19.40
2018-09-21T04:42:23.773Z,19.40
2018-09-21T04:44:52.744Z,19.40
2018-09-21T04:47:21.482Z,19.50
2018-09-21T04:49:49.924Z,19.50
2018-09-21T04:52:18.477Z,19.60
2018-09-21T04:54:46.812Z,19.60
2018-09-21T04:57:15.136Z,19.50
2018-09-21T04:59:43.463Z,19.60
2018-09-21T05:02:11.839Z,19.60
2018-09-21T05:04:40.279Z,19.60
2018-09-21T05:07:08.608Z,19.70
2018-09-21T05:09:37.142Z,19.70
2018-09-21T05:12:05.463Z,19.70
2018-09-21T05:14:33.823Z,19.70
2018-09-21T05:17:02.543Z,19.80
2018-09-21T05:19:31.010Z,19.80
2018-09-21T05:21:59.331Z,19.80
2018-09-21T05:24:28.278Z,19.70
2018-09-21T05:26:56.644Z,19.80
2018-09-21T05:29:24.997Z,19.80
2018-09-21T05:31:54.004Z,19.80
2018-09-21T05:34:22.419Z,19.90
2018-09-21T05:36:55.075Z,19.90
2018-09-21T05:39:23.427Z,19.80
2018-09-21T05:41:52.010Z,19.80
2018-09-21T05:44:20.671Z,19.50
2018-09-21T05:46:50.816Z,18.90
2018-09-21T05:49:21.561Z,18.70
2018-09-21T05:51:50.927Z,18.60
2018-09-21T05:54:19.254Z,18.40
2018-09-21T05:56:49.401Z,18.20
2018-09-21T05:59:18.883Z,18.10
2018-09-21T06:01:47.249Z,18.00
2018-09-21T06:04:15.727Z,18.00
2018-09-21T06:06:44.116Z,17.90
2018-09-21T06:09:13.488Z,17.80
2018-09-21T06:11:42.947Z,17.80
2018-09-21T06:14:11.877Z,17.80
2018-09-21T06:16:41.183Z,17.90
2018-09-21T06:19:10.028Z,17.90
2018-09-21T06:21:38.397Z,17.90
2018-09-21T06:24:06.719Z,17.60
2018-09-21T06:26:35.448Z,17.50
2018-09-21T06:29:03.792Z,17.50
2018-09-21T06:31:32.135Z,17.50
2018-09-21T06:34:00.626Z,17.40
2018-09-21T06:36:29.032Z,17.40
2018-09-21T06:38:57.378Z,17.40
2018-09-21T06:41:25.840Z,17.40
2018-09-21T06:43:54.219Z,17.30
2018-09-21T06:46:23.005Z,17.30
2018-09-21T06:48:51.909Z,17.40
2018-09-21T06:51:20.249Z,17.40
2018-09-21T06:53:48.634Z,17.40
2018-09-21T06:56:16.981Z,17.20
2018-09-21T06:58:45.583Z,16.90
2018-09-21T07:01:13.964Z,16.70
2018-09-21T07:03:42.720Z,16.60
2018-09-21T07:06:11.110Z,16.50
2018-09-21T07:08:39.449Z,16.50
2018-09-21T07:11:08.339Z,16.40
2018-09-21T07:13:36.668Z,16.40
2018-09-21T07:16:05.051Z,16.40
2018-09-21T07:18:33.460Z,16.30
2018-09-21T07:21:01.820Z,16.30
2018-09-21T07:23:30.156Z,16.30
2018-09-21T07:25:59.347Z,16.20
2018-09-21T07:28:27.665Z,16.20
2018-09-21T07:30:56.075Z,16.20
2018-09-21T07:33:25.089Z,16.20
2018-09-21T07:35:53.425Z,16.30
2018-09-21T07:38:21.869Z,16.20
2018-09-21T07:40:50.240Z,16.30
2018-09-21T07:43:18.585Z,16.40
2018-09-21T07:45:46.960Z,16.60
2018-09-21T07:48:15.308Z,16.60
2018-09-21T07:50:43.644Z,16.60
2018-09-21T07:53:11.972Z,16.70
2018-09-21T07:55:40.331Z,16.70
2018-09-21T07:58:08.652Z,16.60
2018-09-21T08:00:37.003Z,16.70
2018-09-21T08:03:06.593Z,16.60
2018-09-21T08:05:35.502Z,16.50
2018-09-21T08:08:05.409Z,16.50
2018-09-21T08:10:33.728Z,16.60
2018-09-21T08:13:02.382Z,16.60
2018-09-21T08:15:31.479Z,16.50
2018-09-21T08:17:59.919Z,16.40
2018-09-21T08:20:28.693Z,16.40
2018-09-21T08:22:57.464Z,16.50
2018-09-21T08:25:25.811Z,16.50
2018-09-21T08:27:54.164Z,16.60
2018-09-21T08:30:22.545Z,16.90
2018-09-21T08:32:50.884Z,16.80
2018-09-21T08:35:19.208Z,16.70
2018-09-21T08:37:47.571Z,16.70
2018-09-21T08:40:15.994Z,16.60
2018-09-21T08:42:44.324Z,16.60
2018-09-21T08:45:13.111Z,16.50
2018-09-21T08:47:41.476Z,16.60
2018-09-21T08:50:10.505Z,16.60
2018-09-21T08:52:39.923Z,16.70
2018-09-21T08:55:08.316Z,16.80
2018-09-21T08:57:36.646Z,16.90
2018-09-21T09:00:05.721Z,17.00
2018-09-21T09:02:34.046Z,17.10
2018-09-21T09:05:02.484Z,17.10
2018-09-21T09:07:30.838Z,17.20
2018-09-21T09:09:59.303Z,17.40
2018-09-21T09:12:27.633Z,17.50
2018-09-21T09:14:56.556Z,17.60
2018-09-21T09:17:24.863Z,17.50
2018-09-21T09:19:53.536Z,17.30
2018-09-21T09:22:22.189Z,17.20
2018-09-21T09:24:50.575Z,17.10
2018-09-21T09:27:18.904Z,17.10
2018-09-21T09:29:48.009Z,17.30
2018-09-21T09:32:16.348Z,17.50
2018-09-21T09:34:44.691Z,17.60
2018-09-21T09:37:13.107Z,17.60
2018-09-21T09:39:41.544Z,17.60
2018-09-21T09:42:10.168Z,17.60
2018-09-21T09:44:39.133Z,17.60
2018-09-21T09:47:07.470Z,17.50
2018-09-21T09:49:35.804Z,17.50
2018-09-21T09:52:04.337Z,17.40
2018-09-21T09:54:32.672Z,17.50
2018-09-21T09:57:01.013Z,17.50
2018-09-21T09:59:30.118Z,17.30
2018-09-21T10:01:58.467Z,17.60
2018-09-21T10:04:26.880Z,17.90
2018-09-21T10:06:55.700Z,17.90
2018-09-21T10:09:25.910Z,17.40
2018-09-21T10:11:54.255Z,17.40
2018-09-21T10:14:23.376Z,17.10
2018-09-21T10:16:51.768Z,17.10
2018-09-21T10:19:20.480Z,17.20
2018-09-21T10:21:49.459Z,17.10
2018-09-21T10:24:17.877Z,17.00
2018-09-21T10:26:46.237Z,16.80
2018-09-21T10:29:14.618Z,16.90
2018-09-21T10:31:42.961Z,17.00
2018-09-21T10:34:11.368Z,16.90
2018-09-21T10:36:39.732Z,17.10
2018-09-21T10:39:08.456Z,17.10
2018-09-21T10:41:37.176Z,17.00
2018-09-21T10:44:06.345Z,16.90
2018-09-21T10:46:34.826Z,16.80
2018-09-21T10:49:03.152Z,16.80
2018-09-21T10:51:34.304Z,16.60
2018-09-21T10:54:02.650Z,16.50
2018-09-21T10:56:30.980Z,16.40
2018-09-21T10:58:59.808Z,16.50
2018-09-21T11:01:28.477Z,16.70
2018-09-21T11:03:56.804Z,16.60
2018-09-21T11:06:25.422Z,16.60
2018-09-21T11:08:53.748Z,16.70
2018-09-21T11:11:22.580Z,16.60
2018-09-21T11:13:51.437Z,16.40
2018-09-21T11:16:19.772Z,17.30
2018-09-21T11:18:48.097Z,17.70
2018-09-21T11:21:16.888Z,18.50
2018-09-21T11:23:45.235Z,18.40
2018-09-21T11:26:13.558Z,17.80
2018-09-21T11:28:42.248Z,17.00
2018-09-21T11:31:10.624Z,16.60
2018-09-21T11:33:38.973Z,16.50
2018-09-21T11:36:07.316Z,16.70
2018-09-21T11:38:35.640Z,17.10
2018-09-21T11:41:03.992Z,17.60
2018-09-21T11:43:32.452Z,17.80
2018-09-21T11:46:01.060Z,18.50
2018-09-21T11:48:29.398Z,18.90
2018-09-21T11:50:58.612Z,18.90
2018-09-21T11:53:27.380Z,18.90
2018-09-21T11:55:55.736Z,19.00
2018-09-21T11:58:24.531Z,19.50
2018-09-21T12:00:52.847Z,19.50
2018-09-21T12:03:21.204Z,19.60
2018-09-21T12:05:50.298Z,19.50
2018-09-21T12:08:18.644Z,19.80
2018-09-21T12:10:46.973Z,19.70
2018-09-21T12:13:15.702Z,19.40
2018-09-21T12:15:44.034Z,19.40
2018-09-21T12:18:12.357Z,19.50
2018-09-21T12:20:40.711Z,19.40
2018-09-21T12:23:09.075Z,19.40
2018-09-21T12:25:37.494Z,19.30
2018-09-21T12:28:06.066Z,19.60
2018-09-21T12:30:34.399Z,19.90
2018-09-21T12:33:02.754Z,20.00
2018-09-21T12:35:31.647Z,18.80
2018-09-21T12:37:59.989Z,18.10
2018-09-21T12:40:28.413Z,18.10
2018-09-21T12:42:57.169Z,18.40
2018-09-21T12:45:25.488Z,18.80
2018-09-21T12:47:53.954Z,18.40
2018-09-21T12:50:22.959Z,18.30
2018-09-21T12:52:51.339Z,19.10
2018-09-21T12:55:19.720Z,18.80
2018-09-21T12:57:48.642Z,19.30
2018-09-21T13:00:16.977Z,18.80
2018-09-21T13:02:45.412Z,18.90
2018-09-21T13:05:14.068Z,18.50
2018-09-21T13:07:42.440Z,17.80
2018-09-21T13:10:10.831Z,17.40
2018-09-21T13:12:39.764Z,17.70
2018-09-21T13:15:08.112Z,18.50
2018-09-21T13:17:36.491Z,19.10
2018-09-21T13:20:04.912Z,19.30
2018-09-21T13:22:33.212Z,19.50
2018-09-21T13:25:01.559Z,19.50
2018-09-21T13:27:29.979Z,18.70
2018-09-21T13:29:58.340Z,17.90
2018-09-21T13:32:26.774Z,18.30
2018-09-21T13:34:55.079Z,18.50
2018-09-21T13:37:23.436Z,18.60
2018-09-21T13:39:52.109Z,18.60
2018-09-21T13:42:20.719Z,18.70
2018-09-21T13:44:49.072Z,18.70
2018-09-21T13:47:18.479Z,18.60
2018-09-21T13:49:47.772Z,18.80
2018-09-21T13:52:16.148Z,18.40
2018-09-21T13:54:44.479Z,17.80
2018-09-21T13:57:12.836Z,17.60
2018-09-21T13:59:41.168Z,18.00
2018-09-21T14:02:09.562Z,18.10
2018-09-21T14:04:37.964Z,18.50
2018-09-21T14:07:06.376Z,19.00
2018-09-21T14:09:34.716Z,19.10
2018-09-21T14:12:03.524Z,19.20
2018-09-21T14:14:31.857Z,19.20
2018-09-21T14:17:00.183Z,19.00
2018-09-21T14:19:29.033Z,18.60
2018-09-21T14:21:57.369Z,18.20
2018-09-21T14:24:25.688Z,18.00
2018-09-21T14:26:54.095Z,18.20
2018-09-21T14:29:22.405Z,18.10
2018-09-21T14:31:50.744Z,17.90
2018-09-21T14:34:19.168Z,17.90
2018-09-21T14:36:47.508Z,17.90
2018-09-21T14:39:15.851Z,18.00
2018-09-21T14:41:44.562Z,17.90
2018-09-21T14:44:12.918Z,17.70
2018-09-21T14:46:41.267Z,17.70
2018-09-21T14:49:09.615Z,17.60
2018-09-21T14:51:38.028Z,17.40
2018-09-21T14:54:06.354Z,17.50
2018-09-21T14:56:35.101Z,17.50
2018-09-21T14:59:03.460Z,17.10
2018-09-21T15:01:31.791Z,17.10
2018-09-21T15:04:00.460Z,17.10
2018-09-21T15:06:28.795Z,17.30
2018-09-21T15:08:57.132Z,17.10
2018-09-21T15:11:25.776Z,17.20
2018-09-21T15:13:54.143Z,17.20
2018-09-21T15:16:22.521Z,17.10
2018-09-21T15:18:51.481Z,17.10
2018-09-21T15:21:19.830Z,16.80
2018-09-21T15:23:48.187Z,16.80
2018-09-21T15:26:16.892Z,16.80
2018-09-21T15:28:45.392Z,16.80
2018-09-21T15:31:13.738Z,16.90
2018-09-21T15:33:42.765Z,16.90
2018-09-21T15:36:11.098Z,16.90
2018-09-21T15:38:39.413Z,16.70
2018-09-21T15:41:07.876Z,16.70
2018-09-21T15:43:36.293Z,16.70
2018-09-21T15:46:04.569Z,16.60
2018-09-21T15:48:32.952Z,16.50
2018-09-21T15:51:01.286Z,16.70
2018-09-21T15:53:29.683Z,16.50
2018-09-21T15:55:58.083Z,16.50
2018-09-21T15:58:26.418Z,16.40
2018-09-21T16:00:54.797Z,16.30
2018-09-21T16:03:23.910Z,16.40
2018-09-21T16:05:52.296Z,16.30
2018-09-21T16:08:20.765Z,16.30
2018-09-21T16:10:49.970Z,16.10
2018-09-21T16:13:19.023Z,16.20
2018-09-21T16:15:47.361Z,16.10
2018-09-21T16:18:16.021Z,16.10
2018-09-21T16:20:44.356Z,16.10
2018-09-21T16:23:12.754Z,16.20
2018-09-21T16:25:41.136Z,16.10
2018-09-21T16:28:09.444Z,16.10
2018-09-21T16:30:37.841Z,16.10
2018-09-21T16:33:06.816Z,16.10
2018-09-21T16:35:35.139Z,16.10
2018-09-21T16:38:03.461Z,16.10
2018-09-21T16:40:31.802Z,16.00
2018-09-21T16:43:00.184Z,15.90
2018-09-21T16:45:29.022Z,15.60
2018-09-21T16:47:58.015Z,15.10
2018-09-21T16:50:26.353Z,14.60
2018-09-21T16:52:54.687Z,14.00
2018-09-21T16:55:25.371Z,13.50
2018-09-21T16:57:53.716Z,13.30
2018-09-21T17:00:22.115Z,13.30
2018-09-21T17:02:50.468Z,13.20
2018-09-21T17:05:19.728Z,13.20
2018-09-21T17:07:48.122Z,13.10
2018-09-21T17:10:16.991Z,13.10
2018-09-21T17:12:45.419Z,13.10
2018-09-21T17:15:13.754Z,13.00
2018-09-21T17:17:42.114Z,13.00
2018-09-21T17:20:10.523Z,12.90
2018-09-21T17:22:38.880Z,13.10
2018-09-21T17:25:07.693Z,12.80
2018-09-21T17:27:36.082Z,13.00
2018-09-21T17:30:04.452Z,13.00
2018-09-21T17:32:32.804Z,13.20
2018-09-21T17:35:01.212Z,13.20
2018-09-21T17:37:29.541Z,13.30
2018-09-21T17:39:57.898Z,13.30
2018-09-21T17:42:26.233Z,13.40
2018-09-21T17:44:54.548Z,13.50
2018-09-21T17:47:23.731Z,13.60
2018-09-21T17:49:52.364Z,13.60
2018-09-21T17:52:20.804Z,13.80
2018-09-21T17:54:49.716Z,13.70
2018-09-21T17:57:18.636Z,13.80
2018-09-21T17:59:46.978Z,13.70
2018-09-21T18:02:15.840Z,13.80
2018-09-21T18:04:44.204Z,13.80
2018-09-21T18:07:19.694Z,13.80
2018-09-21T18:09:49.207Z,13.80
2018-09-21T18:12:18.125Z,13.70
2018-09-21T18:14:46.548Z,13.70
2018-09-21T18:17:14.864Z,13.60
2018-09-21T18:19:43.191Z,13.70
2018-09-21T18:22:12.383Z,13.70
2018-09-21T18:24:41.320Z,13.80
2018-09-21T18:27:10.423Z,13.80
2018-09-21T18:29:38.990Z,13.80
2018-09-21T18:32:08.068Z,13.90
2018-09-21T18:34:36.493Z,13.80
2018-09-21T18:37:05.440Z,13.80
2018-09-21T18:39:33.849Z,13.80
2018-09-21T18:42:02.147Z,13.80
2018-09-21T18:44:30.891Z,13.80
2018-09-21T18:46:59.276Z,13.80
2018-09-21T18:49:27.600Z,13.80
2018-09-21T18:51:56.342Z,13.60
2018-09-21T18:54:24.728Z,13.60
2018-09-21T18:56:53.044Z,13.50
2018-09-21T18:59:21.611Z,13.40
2018-09-21T19:01:49.975Z,13.40
2018-09-21T19:04:18.396Z,13.20
2018-09-21T19:06:48.717Z,13.20
2018-09-21T19:09:17.237Z,13.20
2018-09-21T19:11:45.580Z,13.30
2018-09-21T19:14:14.277Z,13.30
2018-09-21T19:16:42.643Z,13.20
2018-09-21T19:19:11.020Z,13.20
2018-09-21T19:21:39.725Z,13.10
2018-09-21T19:24:08.080Z,13.10
2018-09-21T19:26:36.523Z,13.10
2018-09-21T19:29:04.804Z,13.10
2018-09-21T19:31:33.155Z,13.10
2018-09-21T19:34:01.556Z,13.00
2018-09-21T19:36:29.972Z,13.00
2018-09-21T19:38:59.117Z,13.10
2018-09-21T19:41:27.464Z,13.10
2018-09-21T19:43:55.892Z,13.10
2018-09-21T19:46:24.223Z,13.10
2018-09-21T19:48:52.547Z,13.10
2018-09-21T19:51:21.592Z,13.10
2018-09-21T19:53:50.136Z,13.10
2018-09-21T19:56:18.523Z,13.10
2018-09-21T19:58:47.898Z,13.00
2018-09-21T20:01:16.324Z,13.00
2018-09-21T20:03:44.648Z,13.00
2018-09-21T20:06:13.573Z,13.00
2018-09-21T20:08:41.899Z,13.20
2018-09-21T20:11:10.356Z,13.30
2018-09-21T20:13:38.824Z,13.40
2018-09-21T20:16:07.276Z,13.50
2018-09-21T20:18:35.613Z,13.50
2018-09-21T20:21:04.044Z,13.50
2018-09-21T20:23:32.383Z,13.60
2018-09-21T20:26:00.776Z,13.00
2018-09-21T20:28:29.883Z,12.80
2018-09-21T20:31:03.886Z,12.70
2018-09-21T20:33:33.626Z,12.60
2018-09-21T20:36:01.980Z,12.60
2018-09-21T20:38:30.385Z,12.60
2018-09-21T20:40:59.460Z,12.60
2018-09-21T20:43:27.851Z,12.60
2018-09-21T20:45:56.396Z,12.50
2018-09-21T20:48:25.356Z,12.40
2018-09-21T20:50:53.710Z,12.50
2018-09-21T20:53:22.700Z,12.50
2018-09-21T20:55:51.711Z,12.40
2018-09-21T20:58:20.037Z,12.50
2018-09-21T21:00:48.394Z,12.60
2018-09-21T21:03:17.731Z,12.60
2018-09-21T21:05:46.060Z,12.70
2018-09-21T21:08:14.385Z,12.70
2018-09-21T21:10:42.741Z,12.70
2018-09-21T21:13:11.117Z,12.60
2018-09-21T21:15:39.454Z,12.60
2018-09-21T21:18:08.532Z,12.60
2018-09-21T21:20:36.856Z,12.60
2018-09-21T21:23:05.635Z,12.70
2018-09-21T21:25:34.193Z,12.70
2018-09-21T21:28:02.541Z,12.70
2018-09-21T21:30:30.872Z,12.70
2018-09-21T21:32:59.226Z,12.70
2018-09-21T21:35:27.611Z,12.60
2018-09-21T21:37:55.936Z,12.60
2018-09-21T21:40:24.649Z,12.60
2018-09-21T21:42:52.975Z,12.70
2018-09-21T21:45:21.364Z,12.70
2018-09-21T21:47:49.775Z,12.70
2018-09-21T21:50:18.117Z,12.60
2018-09-21T21:52:46.448Z,12.70
2018-09-21T21:55:14.784Z,12.70
2018-09-21T21:57:43.116Z,12.70
2018-09-21T22:00:11.780Z,12.70
2018-09-21T22:02:40.232Z,12.70
2018-09-21T22:05:08.780Z,12.70
2018-09-21T22:07:38.223Z,12.70
2018-09-21T22:10:07.880Z,12.70
2018-09-21T22:12:41.477Z,12.70
2018-09-21T22:15:19.999Z,12.70
2018-09-21T22:17:49.651Z,12.70
2018-09-21T22:20:18.178Z,12.70
2018-09-21T22:22:46.547Z,12.70
2018-09-21T22:25:14.868Z,12.70
2018-09-21T22:27:43.440Z,12.70
2018-09-21T22:30:12.420Z,12.70
2018-09-21T22:32:40.955Z,12.60
2018-09-21T22:35:09.284Z,12.50
2018-09-21T22:37:37.699Z,12.50
2018-09-21T22:40:06.366Z,12.50
2018-09-21T22:42:34.709Z,12.50
2018-09-21T22:45:03.626Z,12.50
2018-09-21T22:47:31.974Z,12.50
2018-09-21T22:50:00.323Z,12.60
2018-09-21T22:52:28.804Z,12.60
2018-09-21T22:54:57.125Z,12.50
2018-09-21T22:57:25.457Z,12.50
2018-09-21T22:59:53.835Z,12.60
2018-09-21T23:02:22.200Z,12.60
2018-09-21T23:04:50.532Z,12.60
2018-09-21T23:07:18.968Z,12.50
2018-09-21T23:09:47.303Z,12.50
2018-09-21T23:12:15.624Z,12.40
2018-09-21T23:14:44.948Z,12.40
2018-09-21T23:17:13.288Z,12.40
2018-09-21T23:19:41.623Z,12.40
2018-09-21T23:22:09.999Z,12.40
2018-09-21T23:24:38.367Z,12.30
2018-09-21T23:27:06.776Z,12.30
2018-09-21T23:29:35.585Z,12.30
2018-09-21T23:32:03.908Z,12.40
2018-09-21T23:34:32.251Z,12.40
2018-09-21T23:37:00.604Z,12.30
2018-09-21T23:39:29.044Z,12.40
2018-09-21T23:41:57.391Z,12.40
2018-09-21T23:44:25.785Z,12.50
2018-09-21T23:46:54.124Z,12.50
2018-09-21T23:49:22.505Z,12.50
2018-09-21T23:51:50.860Z,12.50
2018-09-21T23:54:19.167Z,12.50
2018-09-21T23:56:47.495Z,12.40
2018-09-21T23:59:15.888Z,12.40
